TALO2: Illinois River, Tahlequah, OK

                                SHEF ID:       TALO2     Illinois River near Tahlequah, O
STATION TYPE:
Regulating: Stage = 11.00, Flow = 10168

PRECIP STAGE STAGE(2) RIV-FLOW BAT-LOAD
in ft ft cfs volt
Ccp-Rev Ccp-Rev Ccp-Rev Ccp-Rev Ccp-Rev
(America/Chicago)
04/28 00:00 ---- 8.56 ---- 5026 12.17
04/28 01:00 ---- 8.51 ---- 4929 12.17
04/28 02:00 ---- 8.45 ---- 4813 12.09
04/28 03:00 ---- 8.39 ---- 4698 ----
04/28 04:00 ---- 8.37 ---- 4660 12.09
04/28 05:00 ---- 8.33 ---- 4583 12.01
04/28 06:00 ---- 8.28 ---- 4488 11.93
04/28 07:00 ---- 8.23 ---- 4393 12.01
04/28 08:00 ---- 8.19 ---- 4316 12.09
04/28 09:00 ---- 8.16 ---- 4260 12.17
04/28 10:00 ---- 8.12 ---- 4184 12.57
04/28 11:00 ---- 8.08 ---- 4109 12.65
04/28 12:00 ---- 8.06 ---- 4071 12.73
04/28 13:00 ---- 8.04 ---- 4033 12.57
04/28 14:00 ---- 8.00 ---- 3958 13.05
04/28 15:00 ---- 7.96 ---- 3884 12.81
04/28 16:00 ---- 7.95 ---- 3865 12.73
04/28 17:00 ---- 7.93 ---- 3827 12.41
04/28 18:00 ---- 8.05 ---- 4052 12.65
04/28 19:00 ---- 8.05 ---- 4052 12.57
04/28 20:00 ---- 8.08 ---- 4109 12.25
04/28 21:00 ---- 8.17 ---- 4279 12.01
04/28 22:00 ---- 8.23 ---- 4393 12.01
04/28 23:00 ---- ---- ---- ---- ----
Data processed at Wed 29Apr2026 04:33 GMT

NOTICE: If you are parsing this page

Please convert to using our Data API. Starting early 2026 we will be migrating to: https://water.usace.army.mil with modern pages rendered in JavaScript. When this migration completes you will no longer be able to scrape this page! CWMSDataAPI (CDA)

Timeseries IDs (TSIDs)

TSIDs used from left to right in the data table
TAHL.Precip-Inc.Total.1Hour.0.Ccp-Rev
TAHL.Stage.Inst.1Hour.0.Ccp-Rev
TAHL.Stage-Alt.Inst.1Hour.0.Ccp-Rev
TAHL.Flow.Inst.1Hour.0.Ccp-Rev
TAHL.Volt-Battery Load.Inst.1Hour.0.Ccp-Rev

                            

All information presented herein is the property of the government of the United States of America and may be revised or deleted at any time without prior notice. Dissemination of this information without the expressed written consent of the Public Affairs Office, Tulsa District U.S. Army Corps of Engineers is strictly prohibited. These data are gathered electronically and, as presented, have NOT undergone any form of quality control. These data are NOT guaranteed to be valid or correct.